createdAt,value
2022-09-11T00:02:57.630Z,67.70
2022-09-11T00:06:05.191Z,67.60
2022-09-11T00:09:08.110Z,67.70
2022-09-11T00:12:10.189Z,67.60
2022-09-11T00:15:12.328Z,67.60
2022-09-11T00:18:18.223Z,67.50
2022-09-11T00:21:20.553Z,67.50
2022-09-11T00:24:22.884Z,67.50
2022-09-11T00:27:25.400Z,67.40
2022-09-11T00:30:28.324Z,67.50
2022-09-11T00:33:30.681Z,67.50
2022-09-11T00:36:32.819Z,67.40
2022-09-11T00:39:35.326Z,67.40
2022-09-11T00:42:37.810Z,67.40
2022-09-11T00:45:40.145Z,67.40
2022-09-11T00:48:43.837Z,67.40
2022-09-11T00:51:51.615Z,67.40
2022-09-11T00:55:06.445Z,67.40
2022-09-11T00:58:16.096Z,67.40
2022-09-11T01:01:18.481Z,67.40
2022-09-11T01:04:23.358Z,67.40
2022-09-11T01:07:29.181Z,67.40
2022-09-11T01:10:50.847Z,67.40
2022-09-11T01:14:09.150Z,67.40
2022-09-11T01:17:22.042Z,67.30
2022-09-11T01:20:27.139Z,67.40
2022-09-11T01:24:02.481Z,67.30
2022-09-11T01:27:27.294Z,67.30
2022-09-11T01:30:38.699Z,67.40
2022-09-11T01:34:06.065Z,67.40
2022-09-11T01:37:16.379Z,67.30
2022-09-11T01:40:37.268Z,67.40
2022-09-11T01:44:04.261Z,67.40
2022-09-11T01:47:13.159Z,67.40
2022-09-11T01:50:18.696Z,67.30
2022-09-11T01:53:23.171Z,67.40
2022-09-11T01:56:34.096Z,67.40
2022-09-11T01:59:44.583Z,67.40
2022-09-11T02:02:52.563Z,67.40
2022-09-11T02:06:12.161Z,67.40
2022-09-11T02:09:19.078Z,67.40
2022-09-11T02:12:27.748Z,67.40
2022-09-11T02:15:40.496Z,67.50
2022-09-11T02:18:54.524Z,67.40
2022-09-11T02:21:58.767Z,67.50
2022-09-11T02:25:03.105Z,67.50
2022-09-11T02:28:05.366Z,67.60
2022-09-11T02:31:07.931Z,67.60
2022-09-11T02:34:13.303Z,67.60
2022-09-11T02:37:27.859Z,67.70
2022-09-11T02:41:09.228Z,67.80
2022-09-11T02:44:15.316Z,67.80
2022-09-11T02:47:37.236Z,67.80
2022-09-11T02:50:59.631Z,67.80
2022-09-11T02:54:12.078Z,67.80
2022-09-11T02:57:19.675Z,67.90
2022-09-11T03:00:22.797Z,67.90
2022-09-11T03:03:25.014Z,68.10
2022-09-11T03:06:28.233Z,68.10
2022-09-11T03:09:30.466Z,68.10
2022-09-11T03:12:37.273Z,68.20
2022-09-11T03:15:39.451Z,68.30
2022-09-11T03:18:41.722Z,68.30
2022-09-11T03:21:43.940Z,68.30
2022-09-11T03:24:46.060Z,68.40
2022-09-11T03:27:48.318Z,68.40
2022-09-11T03:30:52.903Z,68.40
2022-09-11T03:33:55.805Z,68.50
2022-09-11T03:36:58.018Z,68.50
2022-09-11T03:40:01.715Z,68.60
2022-09-11T03:43:04.497Z,68.60
2022-09-11T03:46:06.862Z,68.70
2022-09-11T03:49:10.011Z,68.60
2022-09-11T03:52:12.136Z,68.70
2022-09-11T03:55:14.615Z,68.80
2022-09-11T03:58:19.542Z,68.90
2022-09-11T04:01:22.956Z,68.90
2022-09-11T04:04:26.457Z,69.00
2022-09-11T04:07:29.591Z,69.00
2022-09-11T04:10:34.327Z,69.10
2022-09-11T04:13:40.126Z,69.20
2022-09-11T04:16:44.635Z,69.10
2022-09-11T04:19:46.914Z,69.20
2022-09-11T04:22:50.012Z,69.20
2022-09-11T04:25:53.356Z,69.30
2022-09-11T04:28:55.504Z,69.40
2022-09-11T04:31:59.311Z,69.50
2022-09-11T04:35:05.890Z,69.50
2022-09-11T04:38:13.490Z,69.60
2022-09-11T04:41:16.980Z,69.70
2022-09-11T04:44:20.812Z,69.90
2022-09-11T04:47:23.395Z,70.20
2022-09-11T04:50:25.561Z,70.10
2022-09-11T04:53:45.608Z,70.20
2022-09-11T04:56:48.260Z,70.50
2022-09-11T04:59:52.884Z,70.60
2022-09-11T05:02:55.373Z,70.70
2022-09-11T05:05:57.655Z,70.90
2022-09-11T05:09:06.108Z,70.80
2022-09-11T05:12:10.741Z,70.80
2022-09-11T05:15:13.145Z,70.90
2022-09-11T05:18:15.401Z,71.00
2022-09-11T05:21:18.248Z,71.10
2022-09-11T05:24:22.445Z,71.20
2022-09-11T05:27:27.002Z,71.30
2022-09-11T05:30:29.791Z,71.30
2022-09-11T05:33:32.207Z,71.40
2022-09-11T05:36:36.046Z,71.50
2022-09-11T05:39:38.610Z,71.60
2022-09-11T05:42:42.333Z,71.60
2022-09-11T05:45:58.364Z,71.70
2022-09-11T05:49:03.549Z,71.70
2022-09-11T05:52:05.893Z,71.80
2022-09-11T05:55:10.195Z,71.80
2022-09-11T05:58:12.652Z,71.90
2022-09-11T06:01:21.185Z,72.00
2022-09-11T06:04:30.633Z,72.10
2022-09-11T06:07:34.888Z,72.20
2022-09-11T06:10:38.041Z,72.30
2022-09-11T06:13:43.829Z,72.30
2022-09-11T06:16:47.893Z,72.80
2022-09-11T06:19:51.422Z,72.50
2022-09-11T06:22:55.072Z,72.70
2022-09-11T06:26:09.170Z,72.80
2022-09-11T06:29:16.459Z,72.70
2022-09-11T06:32:22.992Z,72.60
2022-09-11T06:35:26.507Z,72.70
2022-09-11T06:38:29.797Z,72.80
2022-09-11T06:41:32.927Z,73.00
2022-09-11T06:44:42.155Z,72.80
2022-09-11T06:47:47.440Z,72.80
2022-09-11T06:50:49.711Z,73.00
2022-09-11T06:53:58.252Z,73.20
2022-09-11T06:57:03.650Z,73.20
2022-09-11T07:00:06.379Z,72.80
2022-09-11T07:03:15.197Z,73.40
2022-09-11T07:06:20.586Z,73.50
2022-09-11T07:09:23.108Z,73.60
2022-09-11T07:12:29.583Z,73.70
2022-09-11T07:15:33.105Z,73.60
2022-09-11T07:18:39.184Z,73.60
2022-09-11T07:21:45.428Z,73.70
2022-09-11T07:24:47.804Z,74.30
2022-09-11T07:27:52.096Z,74.40
2022-09-11T07:31:02.790Z,74.50
2022-09-11T07:34:06.485Z,74.50
2022-09-11T07:37:08.784Z,74.70
2022-09-11T07:40:12.652Z,74.70
2022-09-11T07:43:15.601Z,74.80
2022-09-11T07:46:17.846Z,74.60
2022-09-11T07:49:20.406Z,74.60
2022-09-11T07:52:22.826Z,74.70
2022-09-11T07:55:35.051Z,74.80
2022-09-11T07:58:40.336Z,74.60
2022-09-11T08:01:43.244Z,74.80
2022-09-11T08:04:46.118Z,74.80
2022-09-11T08:07:48.680Z,74.90
2022-09-11T08:10:51.050Z,74.70
2022-09-11T08:13:54.743Z,74.60
2022-09-11T08:16:58.798Z,74.60
2022-09-11T08:20:03.537Z,74.50
2022-09-11T08:23:06.227Z,74.40
2022-09-11T08:26:23.729Z,74.60
2022-09-11T08:29:28.392Z,74.30
2022-09-11T08:32:30.615Z,74.40
2022-09-11T08:35:34.174Z,74.30
2022-09-11T08:38:37.660Z,74.30
2022-09-11T08:41:48.988Z,74.10
2022-09-11T08:45:00.653Z,74.00
2022-09-11T08:48:12.402Z,73.80
2022-09-11T08:51:17.465Z,73.90
2022-09-11T08:54:27.788Z,73.90
2022-09-11T08:57:43.164Z,73.60
2022-09-11T09:00:55.120Z,73.70
2022-09-11T09:04:25.903Z,73.70
2022-09-11T09:07:40.122Z,73.50
2022-09-11T09:10:51.368Z,73.50
2022-09-11T09:14:12.186Z,73.50
2022-09-11T09:17:19.979Z,73.50
2022-09-11T09:20:28.688Z,73.50
2022-09-11T09:23:44.264Z,73.50
2022-09-11T09:26:52.833Z,74.20
2022-09-11T09:29:56.420Z,73.50
2022-09-11T09:33:05.276Z,73.40
2022-09-11T09:36:23.225Z,73.30
2022-09-11T09:39:25.694Z,73.40
2022-09-11T09:42:55.754Z,73.30
2022-09-11T09:46:18.431Z,73.20
2022-09-11T09:49:29.822Z,73.10
2022-09-11T09:52:35.475Z,73.00
2022-09-11T09:55:40.698Z,73.00
2022-09-11T09:59:32.061Z,72.90
2022-09-11T10:02:41.433Z,72.80
2022-09-11T10:05:45.147Z,72.80
2022-09-11T10:08:47.419Z,72.80
2022-09-11T10:12:01.171Z,72.70
2022-09-11T10:15:04.822Z,72.60
2022-09-11T10:18:47.225Z,72.50
2022-09-11T10:21:49.380Z,72.50
2022-09-11T10:25:02.014Z,72.50
2022-09-11T10:28:17.474Z,72.40
2022-09-11T10:31:22.510Z,72.30
2022-09-11T10:34:27.357Z,72.30
2022-09-11T10:37:31.314Z,72.20
2022-09-11T10:40:33.898Z,72.10
2022-09-11T10:44:01.709Z,72.10
2022-09-11T10:47:15.966Z,72.10
2022-09-11T10:50:18.152Z,72.00
2022-09-11T10:53:24.767Z,71.90
2022-09-11T10:56:28.184Z,71.90
2022-09-11T10:59:59.593Z,71.90
2022-09-11T11:03:17.156Z,71.80
2022-09-11T11:06:27.412Z,71.50
2022-09-11T11:09:44.869Z,71.50
2022-09-11T11:12:55.289Z,71.40
2022-09-11T11:16:16.241Z,71.40
2022-09-11T11:19:43.290Z,71.30
2022-09-11T11:23:16.729Z,71.30
2022-09-11T11:26:39.226Z,71.20
2022-09-11T11:29:51.560Z,71.10
2022-09-11T11:32:56.704Z,71.00
2022-09-11T11:36:23.612Z,70.90
2022-09-11T11:39:28.736Z,71.00
2022-09-11T11:42:37.576Z,70.80
2022-09-11T11:45:49.826Z,70.70
2022-09-11T11:49:06.014Z,70.60
2022-09-11T11:52:35.093Z,70.60
2022-09-11T11:55:51.617Z,70.60
2022-09-11T11:58:57.595Z,70.50
2022-09-11T12:02:11.845Z,70.40
2022-09-11T12:05:21.174Z,70.40
2022-09-11T12:08:23.855Z,70.20
2022-09-11T12:11:35.069Z,70.20
2022-09-11T12:14:38.470Z,70.30
2022-09-11T12:17:41.542Z,70.10
2022-09-11T12:20:46.087Z,70.20
2022-09-11T12:23:51.213Z,70.10
2022-09-11T12:27:32.041Z,70.00
2022-09-11T12:30:58.264Z,70.20
2022-09-11T12:34:00.515Z,70.20
2022-09-11T12:37:14.062Z,70.00
2022-09-11T12:40:25.535Z,70.00
2022-09-11T12:43:36.517Z,70.00
2022-09-11T12:46:44.767Z,70.00
2022-09-11T12:50:06.744Z,70.00
2022-09-11T12:53:17.339Z,69.90
2022-09-11T12:56:23.503Z,69.70
2022-09-11T12:59:38.751Z,69.60
2022-09-11T13:02:46.770Z,69.60
2022-09-11T13:06:00.130Z,69.50
2022-09-11T13:09:03.117Z,69.50
2022-09-11T13:12:24.057Z,69.50
2022-09-11T13:15:47.466Z,69.50
2022-09-11T13:18:50.211Z,69.50
2022-09-11T13:21:53.432Z,69.30
2022-09-11T13:25:15.931Z,69.30
2022-09-11T13:28:23.236Z,69.40
2022-09-11T13:31:34.870Z,69.30
2022-09-11T13:34:37.877Z,69.40
2022-09-11T13:37:42.751Z,69.40
2022-09-11T13:40:52.490Z,69.30
2022-09-11T13:43:58.638Z,69.40
2022-09-11T13:47:00.823Z,69.30
2022-09-11T13:50:06.618Z,69.30
2022-09-11T13:53:09.648Z,69.30
2022-09-11T13:56:36.608Z,69.30
2022-09-11T13:59:48.161Z,69.40
2022-09-11T14:02:52.743Z,69.20
2022-09-11T14:06:10.843Z,69.10
2022-09-11T14:09:19.917Z,69.30
2022-09-11T14:12:22.125Z,69.20
2022-09-11T14:15:40.107Z,69.10
2022-09-11T14:18:55.706Z,69.20
2022-09-11T14:21:59.046Z,69.10
2022-09-11T14:25:04.193Z,69.10
2022-09-11T14:28:26.364Z,69.20
2022-09-11T14:31:39.327Z,69.10
2022-09-11T14:34:41.424Z,69.10
2022-09-11T14:37:51.194Z,69.10
2022-09-11T14:41:02.301Z,69.10
2022-09-11T14:44:04.601Z,69.10
2022-09-11T14:47:06.881Z,69.00
2022-09-11T14:50:12.759Z,69.00
2022-09-11T14:53:29.449Z,69.10
2022-09-11T14:56:32.233Z,69.10
2022-09-11T14:59:35.267Z,69.10
2022-09-11T15:02:37.420Z,69.10
2022-09-11T15:05:39.698Z,69.10
2022-09-11T15:08:42.320Z,69.10
2022-09-11T15:11:45.307Z,69.20
2022-09-11T15:14:57.764Z,69.30
2022-09-11T15:18:01.296Z,69.30
2022-09-11T15:21:03.973Z,69.30
2022-09-11T15:24:06.229Z,69.30
2022-09-11T15:27:10.377Z,69.30
2022-09-11T15:30:12.856Z,69.30
2022-09-11T15:33:14.960Z,69.40
2022-09-11T15:36:18.631Z,69.30
2022-09-11T15:39:21.590Z,69.30
2022-09-11T15:42:23.758Z,69.30
2022-09-11T15:45:26.292Z,69.30
2022-09-11T15:48:31.066Z,69.30
2022-09-11T15:51:33.377Z,69.40
2022-09-11T15:54:35.536Z,69.30
2022-09-11T15:57:38.490Z,69.30
2022-09-11T16:00:40.927Z,69.30
2022-09-11T16:03:43.240Z,69.30
2022-09-11T16:06:47.773Z,69.30
2022-09-11T16:09:50.004Z,69.40
2022-09-11T16:12:58.695Z,69.40
2022-09-11T16:16:03.510Z,69.50
2022-09-11T16:19:05.660Z,69.50
2022-09-11T16:22:08.950Z,69.60
2022-09-11T16:25:11.122Z,69.70
2022-09-11T16:28:13.277Z,69.60
2022-09-11T16:31:16.313Z,69.70
2022-09-11T16:34:18.571Z,69.70
2022-09-11T16:37:20.846Z,69.80
2022-09-11T16:40:23.061Z,69.80
2022-09-11T16:43:25.634Z,69.80
2022-09-11T16:46:28.040Z,69.80
2022-09-11T16:49:37.177Z,69.80
2022-09-11T16:52:47.112Z,69.90
2022-09-11T16:55:49.302Z,69.90
2022-09-11T16:58:51.768Z,70.00
2022-09-11T17:01:57.370Z,70.10
2022-09-11T17:04:59.553Z,70.10
2022-09-11T17:08:01.740Z,70.10
2022-09-11T17:11:05.857Z,70.20
2022-09-11T17:14:08.374Z,70.20
2022-09-11T17:17:10.764Z,70.20
2022-09-11T17:20:13.303Z,70.30
2022-09-11T17:23:15.450Z,70.40
2022-09-11T17:26:17.697Z,70.40
2022-09-11T17:29:19.961Z,70.40
2022-09-11T17:32:30.299Z,70.40
2022-09-11T17:35:32.722Z,70.60
2022-09-11T17:38:35.541Z,70.60
2022-09-11T17:41:37.654Z,70.60
2022-09-11T17:44:41.472Z,70.70
2022-09-11T17:47:44.111Z,70.70
2022-09-11T17:50:47.518Z,70.80
2022-09-11T17:53:52.469Z,70.90
2022-09-11T17:56:55.783Z,70.80
2022-09-11T17:59:58.480Z,70.90
2022-09-11T18:03:00.801Z,70.90
2022-09-11T18:06:13.588Z,71.10
2022-09-11T18:09:18.040Z,71.10
2022-09-11T18:12:20.534Z,71.20
2022-09-11T18:15:22.686Z,71.20
2022-09-11T18:18:25.166Z,71.30
2022-09-11T18:21:27.872Z,71.40
2022-09-11T18:24:30.086Z,71.50
2022-09-11T18:27:32.214Z,71.60
2022-09-11T18:30:37.637Z,71.60
2022-09-11T18:33:40.039Z,71.70
2022-09-11T18:36:43.247Z,71.80
2022-09-11T18:39:48.425Z,71.80
2022-09-11T18:42:50.867Z,71.90
2022-09-11T18:45:53.255Z,72.10
2022-09-11T18:48:56.079Z,72.00
2022-09-11T18:52:00.297Z,72.00
2022-09-11T18:55:03.142Z,72.10
2022-09-11T18:58:05.905Z,72.10
2022-09-11T19:01:09.050Z,72.00
2022-09-11T19:04:12.594Z,72.10
2022-09-11T19:07:14.914Z,72.10
2022-09-11T19:10:17.823Z,72.10
2022-09-11T19:13:22.808Z,72.20
2022-09-11T19:16:25.017Z,72.30
2022-09-11T19:19:27.391Z,72.30
2022-09-11T19:22:30.188Z,72.40
2022-09-11T19:25:35.494Z,72.60
2022-09-11T19:28:38.564Z,72.60
2022-09-11T19:31:41.110Z,72.60
2022-09-11T19:34:47.461Z,72.80
2022-09-11T19:37:49.917Z,72.60
2022-09-11T19:40:53.515Z,72.80
2022-09-11T19:44:00.349Z,72.70
2022-09-11T19:47:03.132Z,72.80
2022-09-11T19:50:05.983Z,72.90
2022-09-11T19:53:08.134Z,73.00
2022-09-11T19:56:11.792Z,73.30
2022-09-11T19:59:14.562Z,73.00
2022-09-11T20:02:17.504Z,73.80
2022-09-11T20:05:19.729Z,73.00
2022-09-11T20:08:22.102Z,73.10
2022-09-11T20:11:26.253Z,73.10
2022-09-11T20:14:29.552Z,73.10
2022-09-11T20:17:31.767Z,73.00
2022-09-11T20:20:35.557Z,72.90
2022-09-11T20:23:38.546Z,73.00
2022-09-11T20:26:40.694Z,73.00
2022-09-11T20:29:43.672Z,72.90
2022-09-11T20:32:45.844Z,72.90
2022-09-11T20:35:48.009Z,72.90
2022-09-11T20:38:52.354Z,72.80
2022-09-11T20:41:54.503Z,72.80
2022-09-11T20:44:57.579Z,72.80
2022-09-11T20:48:00.607Z,72.80
2022-09-11T20:51:05.621Z,72.70
2022-09-11T20:54:07.979Z,72.70
2022-09-11T20:57:10.215Z,72.60
2022-09-11T21:00:13.161Z,72.60
2022-09-11T21:03:15.339Z,72.60
2022-09-11T21:06:22.059Z,72.60
2022-09-11T21:09:27.630Z,72.60
2022-09-11T21:12:29.822Z,72.40
2022-09-11T21:15:31.979Z,72.50
2022-09-11T21:18:34.628Z,72.40
2022-09-11T21:21:43.105Z,72.50
2022-09-11T21:24:45.433Z,72.50
2022-09-11T21:27:48.398Z,72.50
2022-09-11T21:30:51.164Z,72.50
2022-09-11T21:33:53.341Z,72.50
2022-09-11T21:36:55.487Z,72.50
2022-09-11T21:39:57.853Z,72.50
2022-09-11T21:43:00.032Z,72.50
2022-09-11T21:46:02.632Z,72.50
2022-09-11T21:49:04.820Z,72.50
2022-09-11T21:52:07.685Z,72.40
2022-09-11T21:55:11.450Z,72.50
2022-09-11T21:58:16.601Z,72.50
2022-09-11T22:01:20.457Z,72.40
2022-09-11T22:04:22.997Z,72.50
2022-09-11T22:07:25.219Z,72.50
2022-09-11T22:10:27.397Z,72.40
2022-09-11T22:13:30.979Z,72.40
2022-09-11T22:16:33.230Z,72.40
2022-09-11T22:19:35.339Z,72.40
2022-09-11T22:22:39.094Z,72.30
2022-09-11T22:25:41.455Z,73.00
2022-09-11T22:28:44.071Z,72.20
2022-09-11T22:31:46.188Z,72.10
2022-09-11T22:34:48.304Z,72.20
2022-09-11T22:37:50.419Z,72.10
2022-09-11T22:40:53.817Z,72.00
2022-09-11T22:43:56.280Z,71.90
2022-09-11T22:46:58.480Z,71.80
2022-09-11T22:50:00.770Z,71.90
2022-09-11T22:53:02.883Z,71.70
2022-09-11T22:56:05.535Z,71.70
2022-09-11T22:59:08.240Z,71.60
2022-09-11T23:02:11.158Z,71.60
2022-09-11T23:05:32.003Z,71.50
2022-09-11T23:08:44.756Z,71.40
2022-09-11T23:11:47.349Z,71.30
2022-09-11T23:14:49.509Z,71.30
2022-09-11T23:17:51.670Z,71.30
2022-09-11T23:20:55.308Z,71.30
2022-09-11T23:23:58.629Z,71.30
2022-09-11T23:27:00.795Z,71.20
2022-09-11T23:30:02.966Z,71.10
2022-09-11T23:33:05.219Z,71.10
2022-09-11T23:36:09.356Z,71.10
2022-09-11T23:39:11.697Z,71.00
2022-09-11T23:42:14.042Z,71.10
2022-09-11T23:45:16.837Z,70.80
2022-09-11T23:48:19.016Z,70.70
2022-09-11T23:51:21.561Z,70.50
2022-09-11T23:54:23.745Z,70.50
2022-09-11T23:57:25.860Z,70.30
